Time;durP1;ratioP1;P1;durP2;ratioP2;P2;SDS_P1;SDS_P2;PMS_P1;PMS_P2;Temp;Humidity;BMP_temperature;BMP_pressure;BME280_temperature;BME280_humidity;BME280_pressure;Samples;Min_cycle;Max_cycle;Signal;HPM_P1;HPM_P2
2022/03/18 00:00:24;;;;;;;15.98;10.45;;;;;;;;;;4984950;28;20026;-49
2022/03/18 00:02:52;;;;;;;14.15;9.68;;;;;;;;;;4986813;28;20026;-49
2022/03/18 00:05:18;;;;;;;14.52;9.30;;;;;;;;;;4986092;28;20065;-49
2022/03/18 00:07:45;;;;;;;14.95;9.27;;;;;;;;;;4984946;28;20030;-48
2022/03/18 00:10:12;;;;;;;13.75;9.15;;;;;;;;;;4974534;28;20406;-51
2022/03/18 00:12:38;;;;;;;18.30;10.32;;;;;;;;;;4973660;28;20031;-49
2022/03/18 00:15:05;;;;;;;15.38;8.65;;;;;;;;;;4967600;28;20632;-49
2022/03/18 00:17:31;;;;;;;14.20;9.20;;;;;;;;;;4966839;28;20041;-50
2022/03/18 00:19:57;;;;;;;16.50;9.98;;;;;;;;;;4967126;28;20027;-49
2022/03/18 00:22:24;;;;;;;14.23;8.93;;;;;;;;;;4966448;28;20030;-50
2022/03/18 00:24:50;;;;;;;18.70;10.77;;;;;;;;;;4966888;28;20022;-49
2022/03/18 00:27:16;;;;;;;17.05;10.32;;;;;;;;;;4966412;28;20045;-49
2022/03/18 00:29:42;;;;;;;16.67;10.10;;;;;;;;;;4965804;28;20023;-49
2022/03/18 00:32:09;;;;;;;16.45;9.43;;;;;;;;;;4972744;28;20022;-47
2022/03/18 00:34:36;;;;;;;18.92;11.02;;;;;;;;;;4986227;28;20101;-48
2022/03/18 00:37:02;;;;;;;17.30;11.63;;;;;;;;;;4985237;28;20030;-46
2022/03/18 00:39:29;;;;;;;14.60;9.63;;;;;;;;;;4968770;28;20628;-50
2022/03/18 00:41:55;;;;;;;18.73;11.25;;;;;;;;;;4970011;28;20026;-47
2022/03/18 00:44:25;;;;;;;17.33;11.65;;;;;;;;;;4985436;28;20087;-49
2022/03/18 00:46:51;;;;;;;18.35;11.85;;;;;;;;;;4985952;28;20037;-47
2022/03/18 00:52:04;;;;;;;17.77;11.57;;;;;;;;;;4984798;28;20560;-47
2022/03/18 00:54:42;;;;;;;19.38;12.07;;;;;;;;;;4983450;28;20106;-49
2022/03/18 00:57:10;;;;;;;17.20;11.77;;;;;;;;;;4983475;28;20062;-49
2022/03/18 00:59:37;;;;;;;17.90;12.15;;;;;;;;;;4986366;28;20026;-49
2022/03/18 01:02:03;;;;;;;20.75;11.50;;;;;;;;;;4985920;28;20034;-49
2022/03/18 01:04:29;;;;;;;17.73;11.40;;;;;;;;;;4985773;28;20033;-48
2022/03/18 01:06:55;;;;;;;17.10;11.35;;;;;;;;;;4985942;28;20230;-51
2022/03/18 01:09:23;;;;;;;17.27;11.10;;;;;;;;;;4981314;28;20027;-50
2022/03/18 01:11:51;;;;;;;18.92;12.77;;;;;;;;;;4966624;28;20035;-49
2022/03/18 01:14:17;;;;;;;18.20;12.07;;;;;;;;;;4966317;28;20033;-50
2022/03/18 01:16:45;;;;;;;18.05;11.88;;;;;;;;;;4966501;28;20475;-50
2022/03/18 01:19:11;;;;;;;17.38;11.73;;;;;;;;;;4968648;28;20037;-47
2022/03/18 01:21:38;;;;;;;16.75;10.82;;;;;;;;;;4968560;28;20395;-51
2022/03/18 01:24:05;;;;;;;19.45;13.05;;;;;;;;;;4986815;28;20034;-49
2022/03/18 01:26:32;;;;;;;21.30;12.48;;;;;;;;;;4985386;28;20457;-49
2022/03/18 01:28:58;;;;;;;18.63;11.93;;;;;;;;;;4984526;28;20045;-48
2022/03/18 01:31:26;;;;;;;19.27;11.82;;;;;;;;;;4985551;28;20532;-50
2022/03/18 01:33:54;;;;;;;19.80;12.52;;;;;;;;;;4985583;28;20034;-47
2022/03/18 01:36:21;;;;;;;21.40;12.23;;;;;;;;;;4985080;28;20117;-50
2022/03/18 01:38:47;;;;;;;20.25;12.73;;;;;;;;;;4985344;28;20022;-51
2022/03/18 01:41:13;;;;;;;21.58;13.13;;;;;;;;;;4984350;28;20041;-50
2022/03/18 01:43:41;;;;;;;20.13;12.10;;;;;;;;;;4985592;28;20044;-48
2022/03/18 01:46:08;;;;;;;17.65;11.55;;;;;;;;;;4986053;28;20038;-47
2022/03/18 01:48:34;;;;;;;17.70;10.60;;;;;;;;;;4985587;28;20029;-50
2022/03/18 01:51:01;;;;;;;17.50;10.30;;;;;;;;;;4984844;28;20034;-49
2022/03/18 01:53:27;;;;;;;18.27;11.25;;;;;;;;;;4985154;28;20026;-51
2022/03/18 01:55:55;;;;;;;20.42;12.45;;;;;;;;;;4984911;28;20120;-48
2022/03/18 01:58:21;;;;;;;20.27;13.13;;;;;;;;;;4985094;28;20023;-49
2022/03/18 02:00:49;;;;;;;18.50;12.35;;;;;;;;;;4984268;28;20109;-47
2022/03/18 02:03:15;;;;;;;17.50;11.75;;;;;;;;;;4985026;28;20033;-50
2022/03/18 02:05:41;;;;;;;20.58;12.25;;;;;;;;;;4985203;28;20034;-46
2022/03/18 02:08:08;;;;;;;16.98;11.30;;;;;;;;;;4985654;28;20457;-50
2022/03/18 02:10:35;;;;;;;22.40;13.48;;;;;;;;;;4973186;28;20027;-48
2022/03/18 02:13:01;;;;;;;17.67;11.85;;;;;;;;;;4983552;28;20486;-50
2022/03/18 02:15:27;;;;;;;19.92;12.00;;;;;;;;;;4984894;28;20062;-49
2022/03/18 02:17:53;;;;;;;18.35;11.73;;;;;;;;;;4985042;28;20022;-49
2022/03/18 02:20:19;;;;;;;20.35;12.98;;;;;;;;;;4984144;28;20081;-49
2022/03/18 02:22:45;;;;;;;20.35;12.93;;;;;;;;;;4985027;28;20454;-48
2022/03/18 02:25:12;;;;;;;20.60;11.77;;;;;;;;;;4985279;28;20478;-50
2022/03/18 02:27:52;;;;;;;18.08;12.02;;;;;;;;;;4984668;28;20037;-49
2022/03/18 02:30:18;;;;;;;17.25;11.90;;;;;;;;;;4969324;28;20140;-50
2022/03/18 02:32:46;;;;;;;19.25;11.65;;;;;;;;;;4966852;28;20077;-50
2022/03/18 02:35:12;;;;;;;18.08;11.20;;;;;;;;;;4984892;28;20041;-48
2022/03/18 02:37:39;;;;;;;21.75;13.57;;;;;;;;;;4984762;28;20025;-47
2022/03/18 02:40:06;;;;;;;25.00;14.18;;;;;;;;;;4985736;28;20395;-47
2022/03/18 02:42:33;;;;;;;21.25;13.98;;;;;;;;;;4967276;28;20122;-49
2022/03/18 02:45:00;;;;;;;21.52;13.60;;;;;;;;;;4984974;28;20053;-50
2022/03/18 02:47:27;;;;;;;22.25;13.27;;;;;;;;;;4984651;28;20109;-48
2022/03/18 02:49:54;;;;;;;20.73;12.85;;;;;;;;;;4985121;28;20061;-47
2022/03/18 02:52:20;;;;;;;20.30;11.65;;;;;;;;;;4983895;28;20037;-50
2022/03/18 02:54:47;;;;;;;17.75;11.13;;;;;;;;;;4984919;28;20417;-48
2022/03/18 02:57:13;;;;;;;24.38;12.63;;;;;;;;;;4984621;28;20038;-48
2022/03/18 02:59:39;;;;;;;21.17;13.05;;;;;;;;;;4985782;28;20255;-51
2022/03/18 03:02:06;;;;;;;16.40;12.07;;;;;;;;;;4988241;28;20054;-48
2022/03/18 03:04:32;;;;;;;20.55;12.60;;;;;;;;;;4988145;28;20026;-50
2022/03/18 03:09:44;;;;;;;17.35;11.18;;;;;;;;;;4988331;28;20045;-48
2022/03/18 03:12:11;;;;;;;16.13;11.00;;;;;;;;;;4985868;28;20157;-49
2022/03/18 03:14:37;;;;;;;20.08;12.02;;;;;;;;;;4988423;28;20404;-51
2022/03/18 03:17:04;;;;;;;19.10;11.73;;;;;;;;;;4988320;28;20428;-51
2022/03/18 03:19:30;;;;;;;21.70;13.25;;;;;;;;;;4987947;28;20026;-48
2022/03/18 03:21:57;;;;;;;22.27;12.98;;;;;;;;;;4969735;28;20026;-48
2022/03/18 03:24:24;;;;;;;16.73;11.00;;;;;;;;;;4987856;28;20034;-48
2022/03/18 03:26:50;;;;;;;19.98;11.15;;;;;;;;;;4987117;28;20030;-48
2022/03/18 03:29:16;;;;;;;16.33;10.73;;;;;;;;;;4987327;28;20053;-49
2022/03/18 03:31:42;;;;;;;18.20;11.95;;;;;;;;;;4987129;28;20030;-48
2022/03/18 03:34:09;;;;;;;18.67;11.80;;;;;;;;;;4988102;28;20543;-48
2022/03/18 03:36:36;;;;;;;21.63;14.15;;;;;;;;;;4988276;28;20087;-49
2022/03/18 03:39:02;;;;;;;22.02;13.80;;;;;;;;;;4987695;28;20026;-48
2022/03/18 03:41:29;;;;;;;28.63;16.70;;;;;;;;;;4986464;28;20073;-48
2022/03/18 03:43:55;;;;;;;28.13;15.82;;;;;;;;;;4987571;28;20053;-49
2022/03/18 03:46:21;;;;;;;37.03;19.33;;;;;;;;;;4987450;28;20026;-49
2022/03/18 03:48:48;;;;;;;31.65;16.50;;;;;;;;;;4987509;28;20038;-51
2022/03/18 03:51:14;;;;;;;25.67;14.80;;;;;;;;;;4985588;28;20022;-47
2022/03/18 03:53:40;;;;;;;24.95;14.85;;;;;;;;;;4987665;28;20073;-48
2022/03/18 03:56:06;;;;;;;22.35;13.90;;;;;;;;;;4987989;28;20521;-50
2022/03/18 03:58:33;;;;;;;20.98;13.63;;;;;;;;;;4986542;28;20030;-47
2022/03/18 04:01:00;;;;;;;22.33;13.63;;;;;;;;;;4987272;28;20022;-49
2022/03/18 04:03:28;;;;;;;21.00;12.70;;;;;;;;;;4987201;28;20057;-47
2022/03/18 04:05:54;;;;;;;20.13;12.55;;;;;;;;;;4987690;28;20401;-49
2022/03/18 04:08:21;;;;;;;18.80;11.57;;;;;;;;;;4984834;28;20045;-47
2022/03/18 04:10:47;;;;;;;21.77;12.80;;;;;;;;;;4969864;28;20027;-50
2022/03/18 04:13:13;;;;;;;20.33;11.98;;;;;;;;;;4983540;28;20036;-50
2022/03/18 04:15:39;;;;;;;17.30;10.80;;;;;;;;;;4987807;28;20413;-47
2022/03/18 04:18:06;;;;;;;18.42;11.20;;;;;;;;;;4987114;28;20030;-52
2022/03/18 04:20:33;;;;;;;19.48;12.13;;;;;;;;;;4986076;28;20033;-50
2022/03/18 04:23:00;;;;;;;16.30;10.43;;;;;;;;;;4986790;28;20033;-49
2022/03/18 04:25:27;;;;;;;18.15;11.60;;;;;;;;;;4979393;28;20062;-49
2022/03/18 04:27:53;;;;;;;17.88;11.45;;;;;;;;;;4967448;28;20472;-48
2022/03/18 04:30:19;;;;;;;16.75;10.55;;;;;;;;;;4967234;28;20019;-48
2022/03/18 04:32:46;;;;;;;15.32;9.95;;;;;;;;;;4965882;28;20498;-49
2022/03/18 04:35:12;;;;;;;21.92;12.73;;;;;;;;;;4978394;28;20030;-49
2022/03/18 04:37:41;;;;;;;19.55;11.93;;;;;;;;;;4986558;28;20022;-50
2022/03/18 04:40:09;;;;;;;21.20;13.25;;;;;;;;;;4986760;28;20014;-51
2022/03/18 04:42:35;;;;;;;20.23;12.35;;;;;;;;;;4986228;28;20411;-50
2022/03/18 04:45:01;;;;;;;27.20;16.45;;;;;;;;;;4986129;28;20080;-50
2022/03/18 04:47:29;;;;;;;27.15;14.85;;;;;;;;;;4986185;28;20022;-51
2022/03/18 04:49:55;;;;;;;22.30;14.73;;;;;;;;;;4986471;28;20243;-48
2022/03/18 04:52:21;;;;;;;22.33;13.88;;;;;;;;;;4985993;28;20445;-48
2022/03/18 04:54:47;;;;;;;16.95;11.52;;;;;;;;;;4985744;28;20040;-51
2022/03/18 04:57:17;;;;;;;16.77;10.75;;;;;;;;;;4987131;28;20027;-46
2022/03/18 04:59:44;;;;;;;19.83;12.70;;;;;;;;;;4986809;28;20029;-47
2022/03/18 05:02:14;;;;;;;17.77;11.45;;;;;;;;;;4984912;28;20037;-47
2022/03/18 05:04:41;;;;;;;18.42;11.98;;;;;;;;;;4987016;28;20030;-47
2022/03/18 05:07:08;;;;;;;16.75;10.93;;;;;;;;;;4985937;28;20096;-50
2022/03/18 05:09:35;;;;;;;20.88;12.88;;;;;;;;;;4986238;28;20633;-48
2022/03/18 05:12:01;;;;;;;15.93;11.32;;;;;;;;;;4975269;28;20506;-48
2022/03/18 05:14:27;;;;;;;17.08;11.02;;;;;;;;;;4982336;28;20091;-48
2022/03/18 05:16:54;;;;;;;19.52;12.38;;;;;;;;;;4986146;28;20098;-48
2022/03/18 05:19:21;;;;;;;21.15;13.35;;;;;;;;;;4985447;28;20026;-48
2022/03/18 05:21:47;;;;;;;19.92;12.38;;;;;;;;;;4977482;28;20035;-49
2022/03/18 05:24:14;;;;;;;22.20;13.85;;;;;;;;;;4967011;28;20026;-49
2022/03/18 05:26:41;;;;;;;21.33;12.82;;;;;;;;;;4966997;28;20030;-47
2022/03/18 05:29:07;;;;;;;17.58;11.70;;;;;;;;;;4966228;28;20034;-47
2022/03/18 05:31:35;;;;;;;17.52;11.52;;;;;;;;;;4971902;28;20034;-49
2022/03/18 05:34:02;;;;;;;18.27;11.88;;;;;;;;;;4984312;28;20032;-48
2022/03/18 05:36:28;;;;;;;20.48;12.32;;;;;;;;;;4985231;28;20117;-48
2022/03/18 05:38:54;;;;;;;20.30;13.20;;;;;;;;;;4984636;28;20069;-48
2022/03/18 05:41:20;;;;;;;16.52;10.80;;;;;;;;;;4985311;28;20028;-48
2022/03/18 05:43:46;;;;;;;16.50;10.75;;;;;;;;;;4984757;28;20044;-47
2022/03/18 05:46:12;;;;;;;17.15;11.05;;;;;;;;;;4986235;28;20506;-49
2022/03/18 05:48:38;;;;;;;20.77;11.60;;;;;;;;;;4984593;28;20026;-48
2022/03/18 05:51:05;;;;;;;20.65;12.07;;;;;;;;;;4985665;28;20049;-48
2022/03/18 05:53:31;;;;;;;19.85;12.80;;;;;;;;;;4985178;28;20498;-48
2022/03/18 05:58:43;;;;;;;14.30;9.52;;;;;;;;;;4985043;28;20080;-49
2022/03/18 06:01:10;;;;;;;16.20;11.00;;;;;;;;;;4985728;28;20038;-48
2022/03/18 06:03:36;;;;;;;18.67;11.32;;;;;;;;;;4984967;28;20128;-49
2022/03/18 06:06:04;;;;;;;14.27;9.80;;;;;;;;;;4983677;28;20493;-48
2022/03/18 06:14:00;;;;;;;18.50;11.45;;;;;;;;;;4985092;28;20041;-48
2022/03/18 06:16:26;;;;;;;16.83;10.50;;;;;;;;;;4985710;28;20035;-48
2022/03/18 06:18:54;;;;;;;15.73;10.30;;;;;;;;;;4984017;28;20418;-48
2022/03/18 06:21:21;;;;;;;18.35;11.75;;;;;;;;;;4984996;28;20037;-48
2022/03/18 06:23:48;;;;;;;14.80;10.38;;;;;;;;;;4970470;28;20026;-49
2022/03/18 06:26:16;;;;;;;16.80;11.20;;;;;;;;;;4965499;28;20425;-49
2022/03/18 06:28:43;;;;;;;16.48;10.35;;;;;;;;;;4965719;28;20027;-49
2022/03/18 06:31:09;;;;;;;13.40;9.25;;;;;;;;;;4965848;28;20038;-48
2022/03/18 06:33:43;;;;;;;22.08;12.48;;;;;;;;;;4965411;28;20035;-47
2022/03/18 06:36:09;;;;;;;21.02;11.38;;;;;;;;;;4969214;28;20058;-49
2022/03/18 06:38:35;;;;;;;17.75;11.45;;;;;;;;;;4975153;28;20620;-49
2022/03/18 06:41:01;;;;;;;20.20;12.20;;;;;;;;;;4988881;28;20106;-48
2022/03/18 06:43:27;;;;;;;19.42;11.52;;;;;;;;;;4989291;28;20117;-52
2022/03/18 06:45:53;;;;;;;19.90;11.85;;;;;;;;;;4989376;28;20033;-49
2022/03/18 06:48:19;;;;;;;22.88;13.13;;;;;;;;;;4986603;28;20455;-48
2022/03/18 06:50:45;;;;;;;24.23;14.38;;;;;;;;;;4988703;28;20541;-49
2022/03/18 06:53:11;;;;;;;27.42;14.15;;;;;;;;;;4988398;28;20101;-48
2022/03/18 06:55:39;;;;;;;34.05;17.35;;;;;;;;;;4988126;28;20588;-48
2022/03/18 06:58:06;;;;;;;30.52;16.27;;;;;;;;;;4987192;28;20037;-48
2022/03/18 07:00:33;;;;;;;32.72;16.88;;;;;;;;;;4987353;28;20026;-48
2022/03/18 07:02:59;;;;;;;29.20;15.52;;;;;;;;;;4988045;28;20077;-49
2022/03/18 07:05:27;;;;;;;26.40;14.57;;;;;;;;;;4971010;28;20034;-48
2022/03/18 07:07:54;;;;;;;33.70;17.65;;;;;;;;;;4969192;28;20031;-49
2022/03/18 07:10:20;;;;;;;28.60;15.02;;;;;;;;;;4985584;28;20363;-51
2022/03/18 07:12:46;;;;;;;27.52;16.30;;;;;;;;;;4986000;28;20026;-48
2022/03/18 07:15:12;;;;;;;21.98;13.10;;;;;;;;;;4988152;28;20416;-51
2022/03/18 07:20:24;;;;;;;17.38;10.98;;;;;;;;;;4988629;28;20037;-50
2022/03/18 07:23:21;;;;;;;18.75;10.60;;;;;;;;;;4987220;28;20454;-49
2022/03/18 07:25:48;;;;;;;17.50;10.52;;;;;;;;;;4974150;28;20046;-47
2022/03/18 07:28:15;;;;;;;14.10;9.45;;;;;;;;;;4982017;28;20022;-51
2022/03/18 07:30:42;;;;;;;14.13;9.30;;;;;;;;;;4982941;28;20057;-48
2022/03/18 07:33:09;;;;;;;15.18;9.65;;;;;;;;;;4988563;28;20477;-48
2022/03/18 07:35:36;;;;;;;22.75;12.35;;;;;;;;;;4987694;28;20429;-50
2022/03/18 07:38:03;;;;;;;22.80;12.50;;;;;;;;;;4984531;28;20019;-50
2022/03/18 07:40:29;;;;;;;22.15;12.63;;;;;;;;;;4973079;28;20073;-48
2022/03/18 07:42:57;;;;;;;20.08;11.15;;;;;;;;;;4988895;28;20536;-50
2022/03/18 07:45:28;;;;;;;20.75;11.43;;;;;;;;;;4980751;28;20038;-51
2022/03/18 07:47:55;;;;;;;18.55;10.63;;;;;;;;;;4974098;28;20027;-50
2022/03/18 07:50:22;;;;;;;15.52;8.93;;;;;;;;;;4988048;28;20035;-49
2022/03/18 07:52:53;;;;;;;16.30;10.00;;;;;;;;;;4989211;28;20034;-50
2022/03/18 07:55:20;;;;;;;16.90;9.70;;;;;;;;;;4988591;28;20433;-48
2022/03/18 07:57:46;;;;;;;16.42;10.63;;;;;;;;;;4988669;28;20706;-50
2022/03/18 08:00:13;;;;;;;14.88;9.73;;;;;;;;;;4988224;28;20022;-51
2022/03/18 08:02:40;;;;;;;11.77;7.97;;;;;;;;;;4992313;28;20034;-51
2022/03/18 08:05:06;;;;;;;12.02;7.88;;;;;;;;;;4986618;28;20038;-50
2022/03/18 08:07:35;;;;;;;10.93;7.35;;;;;;;;;;4985438;28;20030;-52
2022/03/18 08:10:01;;;;;;;12.18;7.95;;;;;;;;;;4987561;28;20386;-51
2022/03/18 08:12:28;;;;;;;11.00;7.38;;;;;;;;;;4985512;28;20713;-52
2022/03/18 08:14:55;;;;;;;11.25;7.25;;;;;;;;;;4989677;28;20034;-50
2022/03/18 08:17:21;;;;;;;10.68;6.88;;;;;;;;;;4989016;28;20492;-51
2022/03/18 08:19:47;;;;;;;11.05;7.40;;;;;;;;;;4979599;28;20457;-49
2022/03/18 08:22:13;;;;;;;10.60;7.10;;;;;;;;;;4968638;28;20569;-51
2022/03/18 08:24:39;;;;;;;10.10;6.60;;;;;;;;;;4970025;28;20031;-50
2022/03/18 08:27:06;;;;;;;11.10;6.82;;;;;;;;;;4971983;28;20135;-51
2022/03/18 08:29:33;;;;;;;9.82;6.38;;;;;;;;;;4981387;28;20128;-51
2022/03/18 08:31:59;;;;;;;7.53;5.60;;;;;;;;;;4987672;28;20022;-48
2022/03/18 08:34:25;;;;;;;8.75;6.00;;;;;;;;;;4988031;28;20046;-50
2022/03/18 08:36:52;;;;;;;8.88;6.38;;;;;;;;;;4987858;28;20383;-47
2022/03/18 08:39:18;;;;;;;6.82;5.32;;;;;;;;;;4987456;28;20104;-51
2022/03/18 08:41:45;;;;;;;9.95;6.60;;;;;;;;;;4987951;28;20461;-49
2022/03/18 08:44:11;;;;;;;8.80;5.82;;;;;;;;;;4987623;28;20089;-49
2022/03/18 08:46:38;;;;;;;7.43;5.93;;;;;;;;;;4987047;28;20032;-51
2022/03/18 08:49:04;;;;;;;7.63;5.22;;;;;;;;;;4987419;28;20026;-48
2022/03/18 08:51:30;;;;;;;7.82;5.45;;;;;;;;;;4987404;28;20053;-51
2022/03/18 08:53:56;;;;;;;8.00;5.57;;;;;;;;;;4988202;28;20030;-49
2022/03/18 08:56:22;;;;;;;7.72;5.13;;;;;;;;;;4987147;28;20026;-52
2022/03/18 08:58:50;;;;;;;7.80;5.30;;;;;;;;;;4986950;28;20370;-49
2022/03/18 09:01:16;;;;;;;7.40;5.18;;;;;;;;;;4987027;28;20035;-51
2022/03/18 09:03:43;;;;;;;9.13;6.25;;;;;;;;;;4987230;28;20168;-50
2022/03/18 09:06:09;;;;;;;10.25;6.65;;;;;;;;;;4987309;28;20109;-51
2022/03/18 09:08:37;;;;;;;15.52;8.60;;;;;;;;;;4987058;28;20141;-50
2022/03/18 09:11:03;;;;;;;12.45;7.50;;;;;;;;;;4987220;28;20057;-50
2022/03/18 09:13:33;;;;;;;11.85;7.25;;;;;;;;;;4985286;28;20022;-49
2022/03/18 09:16:00;;;;;;;10.18;6.30;;;;;;;;;;4987179;28;20464;-49
2022/03/18 09:18:27;;;;;;;10.68;7.28;;;;;;;;;;4969808;28;20058;-48
2022/03/18 09:20:53;;;;;;;9.85;6.40;;;;;;;;;;4987300;28;20026;-49
2022/03/18 09:23:19;;;;;;;12.15;6.80;;;;;;;;;;4986854;28;20113;-49
2022/03/18 09:25:45;;;;;;;8.85;6.30;;;;;;;;;;4986937;28;20034;-49
2022/03/18 09:28:12;;;;;;;10.68;7.15;;;;;;;;;;4987168;28;20026;-51
2022/03/18 09:30:38;;;;;;;8.85;6.32;;;;;;;;;;4986578;28;20398;-48
2022/03/18 09:33:05;;;;;;;9.38;6.68;;;;;;;;;;4986506;28;20034;-49
2022/03/18 09:35:31;;;;;;;9.20;6.30;;;;;;;;;;4986726;28;20550;-49
2022/03/18 09:37:57;;;;;;;11.50;7.47;;;;;;;;;;4997552;28;20029;-48
2022/03/18 09:40:23;;;;;;;8.75;6.60;;;;;;;;;;5002196;28;20470;-49
2022/03/18 09:42:59;;;;;;;8.07;5.85;;;;;;;;;;4974784;28;20057;-48
2022/03/18 09:45:30;;;;;;;8.75;6.03;;;;;;;;;;4986599;28;20482;-49
2022/03/18 09:47:57;;;;;;;8.77;5.97;;;;;;;;;;4984534;28;20026;-50
2022/03/18 09:50:23;;;;;;;7.97;5.68;;;;;;;;;;4986222;28;20031;-50
2022/03/18 09:52:49;;;;;;;8.50;5.78;;;;;;;;;;4987576;28;20047;-47
2022/03/18 09:55:15;;;;;;;7.05;5.40;;;;;;;;;;4986625;28;20548;-49
2022/03/18 09:57:42;;;;;;;6.75;4.85;;;;;;;;;;4987441;28;20059;-49
2022/03/18 10:00:08;;;;;;;8.10;5.78;;;;;;;;;;4986672;28;20034;-49
2022/03/18 10:02:34;;;;;;;7.05;5.30;;;;;;;;;;4985379;28;20023;-50
2022/03/18 10:05:02;;;;;;;8.73;6.20;;;;;;;;;;4988047;28;20038;-49
2022/03/18 10:07:29;;;;;;;10.98;6.93;;;;;;;;;;4986118;28;20026;-51
2022/03/18 10:10:15;;;;;;;10.27;7.75;;;;;;;;;;4990128;28;20038;-49
2022/03/18 10:12:42;;;;;;;10.88;6.80;;;;;;;;;;4991544;28;20058;-51
2022/03/18 10:15:18;;;;;;;10.98;7.07;;;;;;;;;;4987717;28;20088;-52
2022/03/18 10:17:47;;;;;;;11.10;7.68;;;;;;;;;;4989232;28;20023;-51
2022/03/18 10:20:25;;;;;;;10.98;8.05;;;;;;;;;;4990302;28;20030;-51
2022/03/18 10:22:52;;;;;;;11.95;8.35;;;;;;;;;;4990517;28;20413;-52
2022/03/18 10:25:37;;;;;;;10.73;7.78;;;;;;;;;;5000091;28;20048;-51
2022/03/18 10:28:03;;;;;;;10.48;7.15;;;;;;;;;;4998678;28;20022;-51
2022/03/18 10:30:31;;;;;;;12.98;8.50;;;;;;;;;;4990216;28;20038;-51
2022/03/18 10:32:57;;;;;;;12.45;8.18;;;;;;;;;;4991930;28;20038;-50
2022/03/18 10:38:47;;;;;;;14.05;8.50;;;;;;;;;;4990428;28;20072;-49
2022/03/18 10:41:25;;;;;;;12.30;8.23;;;;;;;;;;4980652;28;20505;-51
2022/03/18 10:43:52;;;;;;;10.98;7.40;;;;;;;;;;4988910;28;20034;-50
2022/03/18 10:46:18;;;;;;;11.82;8.32;;;;;;;;;;4989627;28;20096;-50
2022/03/18 10:49:03;;;;;;;12.88;9.50;;;;;;;;;;4990841;28;20405;-48
2022/03/18 10:51:30;;;;;;;11.10;8.23;;;;;;;;;;4990765;28;20442;-48
2022/03/18 10:53:57;;;;;;;12.13;7.75;;;;;;;;;;4991548;28;20035;-51
2022/03/18 10:56:25;;;;;;;11.98;7.80;;;;;;;;;;4989752;28;20528;-52
2022/03/18 10:58:52;;;;;;;9.45;7.05;;;;;;;;;;4990295;28;20065;-49
2022/03/18 11:01:23;;;;;;;12.32;6.85;;;;;;;;;;4972767;28;20026;-50
2022/03/18 11:03:50;;;;;;;10.35;7.00;;;;;;;;;;4990784;28;20065;-52
2022/03/18 11:06:17;;;;;;;8.07;6.10;;;;;;;;;;4990494;28;20513;-51
2022/03/18 11:08:47;;;;;;;9.55;6.45;;;;;;;;;;4988027;28;20153;-51
2022/03/18 11:11:18;;;;;;;10.88;7.15;;;;;;;;;;4973242;28;20054;-52
2022/03/18 11:13:48;;;;;;;14.60;8.20;;;;;;;;;;4985520;28;20406;-51
2022/03/18 11:16:17;;;;;;;13.45;8.00;;;;;;;;;;4984953;28;20045;-51
2022/03/18 11:18:44;;;;;;;16.35;9.00;;;;;;;;;;4988869;28;20026;-51
2022/03/18 11:21:10;;;;;;;13.50;8.30;;;;;;;;;;4987691;28;20049;-49
2022/03/18 11:23:38;;;;;;;12.35;7.60;;;;;;;;;;4989943;28;20042;-50
2022/03/18 11:26:04;;;;;;;14.45;8.50;;;;;;;;;;4990366;28;20481;-51
2022/03/18 11:28:30;;;;;;;14.55;9.15;;;;;;;;;;4990284;28;20030;-51
2022/03/18 11:31:10;;;;;;;11.70;8.07;;;;;;;;;;4988657;28;20117;-51
2022/03/18 11:33:37;;;;;;;14.00;8.18;;;;;;;;;;4989992;28;20023;-50
2022/03/18 11:36:04;;;;;;;12.18;7.30;;;;;;;;;;4989996;28;20022;-51
2022/03/18 11:38:50;;;;;;;10.15;6.82;;;;;;;;;;4989644;28;20609;-52
2022/03/18 11:41:18;;;;;;;9.63;6.82;;;;;;;;;;4989010;28;20038;-49
2022/03/18 11:43:44;;;;;;;9.57;6.72;;;;;;;;;;4990006;28;20041;-52
2022/03/18 11:46:13;;;;;;;10.18;7.57;;;;;;;;;;4990106;28;20035;-52
2022/03/18 11:48:49;;;;;;;11.10;7.80;;;;;;;;;;4989563;28;20041;-52
2022/03/18 11:51:31;;;;;;;15.20;9.02;;;;;;;;;;4986033;28;20128;-52
2022/03/18 11:54:24;;;;;;;12.95;8.20;;;;;;;;;;4990656;28;20077;-52
2022/03/18 11:56:57;;;;;;;11.18;7.75;;;;;;;;;;4989458;28;20042;-52
2022/03/18 11:59:29;;;;;;;11.85;8.23;;;;;;;;;;4987914;28;20065;-49
2022/03/18 12:02:01;;;;;;;13.07;8.07;;;;;;;;;;4976435;28;20418;-52
2022/03/18 12:04:38;;;;;;;12.15;7.55;;;;;;;;;;4989729;28;20034;-52
2022/03/18 12:07:24;;;;;;;12.38;7.35;;;;;;;;;;4989048;28;20034;-52
2022/03/18 12:10:06;;;;;;;9.93;7.07;;;;;;;;;;4989562;28;20037;-50
2022/03/18 12:12:34;;;;;;;10.15;7.28;;;;;;;;;;4986756;28;20068;-51
2022/03/18 12:15:03;;;;;;;8.93;6.22;;;;;;;;;;4986889;28;20080;-52
2022/03/18 12:17:29;;;;;;;8.57;6.70;;;;;;;;;;4983602;28;20375;-52
2022/03/18 12:19:56;;;;;;;11.00;6.70;;;;;;;;;;4989414;28;20105;-52
2022/03/18 12:22:23;;;;;;;9.68;6.88;;;;;;;;;;4988951;28;20041;-52
2022/03/18 12:24:51;;;;;;;11.57;7.03;;;;;;;;;;4988230;28;20138;-51
2022/03/18 12:27:19;;;;;;;9.43;6.97;;;;;;;;;;4988048;28;20042;-52
2022/03/18 12:29:45;;;;;;;9.77;6.15;;;;;;;;;;4987965;28;20036;-49
2022/03/18 12:32:13;;;;;;;8.02;5.85;;;;;;;;;;4988318;28;20030;-52
2022/03/18 12:34:47;;;;;;;9.00;6.57;;;;;;;;;;4983893;28;20062;-52
2022/03/18 12:37:17;;;;;;;10.43;6.60;;;;;;;;;;4984174;28;20054;-52
2022/03/18 12:39:43;;;;;;;9.98;6.35;;;;;;;;;;4985682;28;20061;-52
2022/03/18 12:42:11;;;;;;;9.45;6.20;;;;;;;;;;4987744;28;20026;-50
2022/03/18 12:44:37;;;;;;;10.00;7.03;;;;;;;;;;4986968;28;20050;-52
2022/03/18 12:47:06;;;;;;;10.65;7.22;;;;;;;;;;4985880;28;20034;-52
2022/03/18 12:49:35;;;;;;;11.23;6.30;;;;;;;;;;4987453;28;20037;-51
2022/03/18 12:52:01;;;;;;;13.07;8.10;;;;;;;;;;4987127;28;20092;-52
2022/03/18 12:54:28;;;;;;;10.77;6.65;;;;;;;;;;4987892;28;20073;-52
2022/03/18 12:56:54;;;;;;;14.00;8.48;;;;;;;;;;4987426;28;20076;-51
2022/03/18 12:59:20;;;;;;;11.25;7.40;;;;;;;;;;4968502;28;20041;-50
2022/03/18 13:01:54;;;;;;;11.05;7.80;;;;;;;;;;4968938;28;20375;-51
2022/03/18 13:04:20;;;;;;;11.05;7.43;;;;;;;;;;4968568;28;20022;-49
2022/03/18 13:06:49;;;;;;;10.15;7.18;;;;;;;;;;4983374;28;20066;-51
2022/03/18 13:09:16;;;;;;;11.65;7.70;;;;;;;;;;4987122;28;20407;-48
2022/03/18 13:11:43;;;;;;;12.70;9.90;;;;;;;;;;4987135;28;20030;-48
2022/03/18 13:14:10;;;;;;;14.95;10.38;;;;;;;;;;4987195;28;20401;-49
2022/03/18 13:16:41;;;;;;;14.55;9.95;;;;;;;;;;4985684;28;20030;-49
2022/03/18 13:19:07;;;;;;;15.73;11.07;;;;;;;;;;4986110;28;20030;-49
2022/03/18 13:21:44;;;;;;;15.75;10.70;;;;;;;;;;4986858;28;20034;-49
2022/03/18 13:24:12;;;;;;;13.30;9.95;;;;;;;;;;4986996;28;20101;-48
2022/03/18 13:26:41;;;;;;;13.75;9.55;;;;;;;;;;4987006;28;20104;-48
2022/03/18 13:29:07;;;;;;;11.05;8.00;;;;;;;;;;4986662;28;20793;-49
2022/03/18 13:34:30;;;;;;;11.68;8.40;;;;;;;;;;4987162;28;20083;-52
2022/03/18 13:37:18;;;;;;;9.50;7.13;;;;;;;;;;4987079;28;20554;-48
2022/03/18 13:39:49;;;;;;;14.70;8.85;;;;;;;;;;4985474;28;20025;-48
2022/03/18 13:42:25;;;;;;;11.52;8.10;;;;;;;;;;4985584;28;20030;-51
2022/03/18 13:44:51;;;;;;;11.35;7.93;;;;;;;;;;4985009;28;20409;-48
2022/03/18 13:47:18;;;;;;;9.30;6.40;;;;;;;;;;4985283;28;20576;-48
2022/03/18 13:49:58;;;;;;;10.52;7.63;;;;;;;;;;4985593;28;20399;-49
2022/03/18 13:52:34;;;;;;;14.00;9.40;;;;;;;;;;4985246;28;20096;-49
2022/03/18 13:55:01;;;;;;;14.13;8.50;;;;;;;;;;4985503;28;20434;-51
2022/03/18 13:57:28;;;;;;;14.82;8.70;;;;;;;;;;4985829;28;20498;-51
2022/03/18 13:59:59;;;;;;;11.93;7.75;;;;;;;;;;4985184;28;20030;-50
2022/03/18 14:02:28;;;;;;;12.43;8.32;;;;;;;;;;4985780;28;20449;-52
2022/03/18 14:04:56;;;;;;;12.23;7.10;;;;;;;;;;4985569;28;20027;-52
2022/03/18 14:07:24;;;;;;;13.00;7.53;;;;;;;;;;4985043;28;20026;-52
2022/03/18 14:10:03;;;;;;;11.02;7.93;;;;;;;;;;4986482;28;20085;-49
2022/03/18 14:12:29;;;;;;;11.90;7.70;;;;;;;;;;4981336;28;20042;-48
2022/03/18 14:15:18;;;;;;;12.80;7.93;;;;;;;;;;4969362;28;20026;-49
2022/03/18 14:18:04;;;;;;;12.80;7.70;;;;;;;;;;4984850;28;20053;-49
2022/03/18 14:20:31;;;;;;;13.13;9.05;;;;;;;;;;4986256;28;20029;-52
2022/03/18 14:22:58;;;;;;;10.55;7.45;;;;;;;;;;4986878;28;20026;-48
2022/03/18 14:25:28;;;;;;;12.77;8.15;;;;;;;;;;4974785;28;20030;-51
2022/03/18 14:27:55;;;;;;;10.88;7.65;;;;;;;;;;4984911;28;20030;-50
2022/03/18 14:30:23;;;;;;;10.07;6.70;;;;;;;;;;4986244;28;20049;-51
2022/03/18 14:32:53;;;;;;;9.88;6.10;;;;;;;;;;4986032;28;20569;-51
2022/03/18 14:35:19;;;;;;;8.27;5.60;;;;;;;;;;4985991;28;20036;-50
2022/03/18 14:37:47;;;;;;;9.80;6.93;;;;;;;;;;4986071;28;20034;-51
2022/03/18 14:40:18;;;;;;;11.48;7.65;;;;;;;;;;4986367;28;20132;-52
2022/03/18 14:42:45;;;;;;;9.63;7.40;;;;;;;;;;4986184;28;20038;-50
2022/03/18 14:45:12;;;;;;;11.07;6.63;;;;;;;;;;4985998;28;20791;-51
2022/03/18 14:47:39;;;;;;;13.95;7.85;;;;;;;;;;4986913;28;20066;-51
2022/03/18 14:50:06;;;;;;;9.07;6.32;;;;;;;;;;4986582;28;20105;-49
2022/03/18 14:52:32;;;;;;;9.35;6.70;;;;;;;;;;4985866;28;20528;-51